This is the latest recevied weather packets stored in our database for station/object KQ4DLB-13. If no packets are shown the sender has not sent any weather packets the latest 1 day(s).
| Time | Temp. | Humidity | Pressure | Rain* | Wind** | Luminosity | Snow |
|---|---|---|---|---|---|---|---|
| 1778038802 | 20° C | 76% | 982.7 hPa | 0 mm | 2.68 m/s, 14° | - | - |
| 1778038502 | 20° C | 75% | 982.8 hPa | 0 mm | 2.68 m/s, 307° | - | - |
| 1778038202 | 20° C | 75% | 983 hPa | 0 mm | 2.68 m/s, 347° | - | - |
| 1778037902 | 20° C | 75% | 982.7 hPa | 0 mm | 2.68 m/s, 336° | - | - |
| 1778037602 | 20° C | 75% | 982.7 hPa | 0 mm | 3.13 m/s, 337° | - | - |
| 1778037302 | 19.44° C | 77% | 982.8 hPa | 0 mm | 1.79 m/s, 47° | - | - |
| 1778037002 | 19.44° C | 77% | 982.9 hPa | 0 mm | 1.79 m/s, 359° | - | - |
| 1778036702 | 19.44° C | 77% | 982.9 hPa | 0 mm | 1.79 m/s, 52° | - | - |
| 1778036102 | 19.44° C | 76% | 982.7 hPa | 0 mm | 1.79 m/s, 20° | - | - |
| 1778035802 | 20° C | 76% | 982.7 hPa | 0 mm | 1.79 m/s, 241° | - | - |
| 1778035501 | 20° C | 75% | 982.6 hPa | 0 mm | 1.79 m/s, 309° | - | - |
| 1778035202 | 19.44° C | 75% | 982.8 hPa | 0 mm | 2.68 m/s, 25° | - | - |
| 1778034902 | 19.44° C | 76% | 982.8 hPa | 0 mm | 2.68 m/s, 329° | - | - |
| 1778034602 | 19.44° C | 76% | 982.6 hPa | 0 mm | 2.68 m/s, 359° | - | - |
| 1778034302 | 19.44° C | 77% | 982.7 hPa | 0 mm | 2.68 m/s, 176° | - | - |
| 1778034002 | 19.44° C | 77% | 982.5 hPa | 0 mm | 2.24 m/s, 153° | - | - |
| 1778033702 | 19.44° C | 77% | 982.5 hPa | 0 mm | 2.68 m/s, 356° | - | - |
| 1778033402 | 19.44° C | 77% | 982.5 hPa | 0 mm | 3.13 m/s, 345° | - | - |
| 1778033102 | 19.44° C | 77% | 982.5 hPa | 0 mm | 2.68 m/s, 339° | - | - |
| 1778032802 | 18.89° C | 77% | 982.6 hPa | 0 mm | 2.24 m/s, 242° | - | - |
| 1778032502 | 18.89° C | 78% | 982.4 hPa | 0 mm | 2.68 m/s, 326° | - | - |
| 1778032202 | 18.89° C | 79% | 982.5 hPa | 0 mm | 2.24 m/s, 298° | - | - |
| 1778031902 | 18.33° C | 80% | 982.7 hPa | 0 mm | 2.24 m/s, 237° | - | - |
| 1778031602 | 18.33° C | 81% | 982.8 hPa | 0 mm | 2.24 m/s, 316° | - | - |
| 1778031302 | 17.78° C | 84% | 982.9 hPa | 0 mm | 2.24 m/s, 355° | - | - |
* Rain latest hour (hover to see other rain measurements)
** Current wind speed in m/s (hover to see current wind gust speed)